sensor_id;sensor_type;location;lat;lon;timestamp;temperature;humidity
25440;DHT22;13365;52.208;5.488;2023-02-01T00:00:22;9.20;97.80
25440;DHT22;13365;52.208;5.488;2023-02-01T00:02:48;9.30;97.60
25440;DHT22;13365;52.208;5.488;2023-02-01T00:05:13;9.40;97.60
25440;DHT22;13365;52.208;5.488;2023-02-01T00:07:39;9.20;97.40
25440;DHT22;13365;52.208;5.488;2023-02-01T00:10:06;9.20;97.60
25440;DHT22;13365;52.208;5.488;2023-02-01T00:12:31;8.90;97.80
25440;DHT22;13365;52.208;5.488;2023-02-01T00:14:57;8.90;98.10
25440;DHT22;13365;52.208;5.488;2023-02-01T00:17:23;8.90;98.30
25440;DHT22;13365;52.208;5.488;2023-02-01T00:19:48;8.70;98.50
25440;DHT22;13365;52.208;5.488;2023-02-01T00:22:14;8.90;99.00
25440;DHT22;13365;52.208;5.488;2023-02-01T00:24:39;8.90;98.60
25440;DHT22;13365;52.208;5.488;2023-02-01T00:27:05;8.90;98.80
25440;DHT22;13365;52.208;5.488;2023-02-01T00:29:30;8.80;99.10
25440;DHT22;13365;52.208;5.488;2023-02-01T00:31:56;8.90;99.30
25440;DHT22;13365;52.208;5.488;2023-02-01T00:34:21;9.10;99.10
25440;DHT22;13365;52.208;5.488;2023-02-01T00:36:47;9.10;99.00
25440;DHT22;13365;52.208;5.488;2023-02-01T00:39:13;9.10;99.40
25440;DHT22;13365;52.208;5.488;2023-02-01T00:41:39;9.00;99.00
25440;DHT22;13365;52.208;5.488;2023-02-01T00:44:05;9.20;99.00
25440;DHT22;13365;52.208;5.488;2023-02-01T00:46:31;9.20;99.00
25440;DHT22;13365;52.208;5.488;2023-02-01T00:48:57;9.20;99.00
25440;DHT22;13365;52.208;5.488;2023-02-01T00:51:28;9.10;98.90
25440;DHT22;13365;52.208;5.488;2023-02-01T00:53:53;9.30;98.80
25440;DHT22;13365;52.208;5.488;2023-02-01T00:56:19;9.30;98.60
25440;DHT22;13365;52.208;5.488;2023-02-01T00:58:45;9.20;98.90
25440;DHT22;13365;52.208;5.488;2023-02-01T01:01:18;9.10;99.00
25440;DHT22;13365;52.208;5.488;2023-02-01T01:03:47;9.20;99.30
25440;DHT22;13365;52.208;5.488;2023-02-01T01:06:20;9.20;98.80
25440;DHT22;13365;52.208;5.488;2023-02-01T01:08:46;9.10;99.10
25440;DHT22;13365;52.208;5.488;2023-02-01T01:11:14;9.30;98.70
25440;DHT22;13365;52.208;5.488;2023-02-01T01:13:41;9.30;98.90
25440;DHT22;13365;52.208;5.488;2023-02-01T01:16:09;9.00;98.60
25440;DHT22;13365;52.208;5.488;2023-02-01T01:18:35;9.00;99.10
25440;DHT22;13365;52.208;5.488;2023-02-01T01:21:06;8.90;99.20
25440;DHT22;13365;52.208;5.488;2023-02-01T01:23:32;8.80;99.30
25440;DHT22;13365;52.208;5.488;2023-02-01T01:25:58;8.80;99.40
25440;DHT22;13365;52.208;5.488;2023-02-01T01:28:24;8.70;99.50
25440;DHT22;13365;52.208;5.488;2023-02-01T01:30:49;9.00;99.10
25440;DHT22;13365;52.208;5.488;2023-02-01T01:33:15;9.00;99.00
25440;DHT22;13365;52.208;5.488;2023-02-01T01:35:40;9.00;99.00
25440;DHT22;13365;52.208;5.488;2023-02-01T01:38:06;9.10;98.60
25440;DHT22;13365;52.208;5.488;2023-02-01T01:40:32;9.00;99.10
25440;DHT22;13365;52.208;5.488;2023-02-01T01:42:57;9.20;98.50
25440;DHT22;13365;52.208;5.488;2023-02-01T01:45:30;9.20;98.40
25440;DHT22;13365;52.208;5.488;2023-02-01T01:47:58;9.20;98.30
25440;DHT22;13365;52.208;5.488;2023-02-01T01:50:32;9.20;98.10
25440;DHT22;13365;52.208;5.488;2023-02-01T01:53:01;9.40;97.90
25440;DHT22;13365;52.208;5.488;2023-02-01T01:55:31;9.50;97.80
25440;DHT22;13365;52.208;5.488;2023-02-01T01:58:05;9.50;97.70
25440;DHT22;13365;52.208;5.488;2023-02-01T02:00:31;9.30;97.80
25440;DHT22;13365;52.208;5.488;2023-02-01T02:05:52;9.50;97.90
25440;DHT22;13365;52.208;5.488;2023-02-01T02:08:20;9.60;97.90
25440;DHT22;13365;52.208;5.488;2023-02-01T02:10:50;9.70;97.80
25440;DHT22;13365;52.208;5.488;2023-02-01T02:13:31;9.60;97.50
25440;DHT22;13365;52.208;5.488;2023-02-01T02:18:49;9.80;97.50
25440;DHT22;13365;52.208;5.488;2023-02-01T02:21:32;9.90;97.40
25440;DHT22;13365;52.208;5.488;2023-02-01T02:24:34;9.70;97.70
25440;DHT22;13365;52.208;5.488;2023-02-01T02:33:19;9.40;98.40
25440;DHT22;13365;52.208;5.488;2023-02-01T02:35:50;9.40;98.90
25440;DHT22;13365;52.208;5.488;2023-02-01T02:38:32;9.40;98.80
25440;DHT22;13365;52.208;5.488;2023-02-01T02:41:12;9.50;98.90
25440;DHT22;13365;52.208;5.488;2023-02-01T02:43:59;9.50;98.80
25440;DHT22;13365;52.208;5.488;2023-02-01T02:46:49;9.60;99.00
25440;DHT22;13365;52.208;5.488;2023-02-01T02:49:49;9.70;98.50
25440;DHT22;13365;52.208;5.488;2023-02-01T02:52:41;9.60;98.60
25440;DHT22;13365;52.208;5.488;2023-02-01T02:55:28;9.70;98.40
25440;DHT22;13365;52.208;5.488;2023-02-01T02:57:56;9.70;98.10
25440;DHT22;13365;52.208;5.488;2023-02-01T03:00:42;9.60;98.30
25440;DHT22;13365;52.208;5.488;2023-02-01T03:03:26;9.50;98.30
25440;DHT22;13365;52.208;5.488;2023-02-01T03:06:14;9.50;98.50
25440;DHT22;13365;52.208;5.488;2023-02-01T03:08:41;9.40;98.50
25440;DHT22;13365;52.208;5.488;2023-02-01T03:11:12;9.50;98.40
25440;DHT22;13365;52.208;5.488;2023-02-01T03:13:52;9.50;98.20
25440;DHT22;13365;52.208;5.488;2023-02-01T03:16:24;9.60;98.10
25440;DHT22;13365;52.208;5.488;2023-02-01T03:19:21;9.60;98.00
25440;DHT22;13365;52.208;5.488;2023-02-01T03:21:57;9.40;98.20
25440;DHT22;13365;52.208;5.488;2023-02-01T03:24:36;9.40;98.10
25440;DHT22;13365;52.208;5.488;2023-02-01T03:27:35;9.40;98.40
25440;DHT22;13365;52.208;5.488;2023-02-01T03:30:24;9.40;98.50
25440;DHT22;13365;52.208;5.488;2023-02-01T03:32:54;9.20;98.70
25440;DHT22;13365;52.208;5.488;2023-02-01T03:44:11;9.30;98.90
25440;DHT22;13365;52.208;5.488;2023-02-01T03:47:02;9.10;99.40
25440;DHT22;13365;52.208;5.488;2023-02-01T03:49:38;9.20;99.30
25440;DHT22;13365;52.208;5.488;2023-02-01T03:52:07;9.00;99.80
25440;DHT22;13365;52.208;5.488;2023-02-01T03:54:34;9.00;99.80
25440;DHT22;13365;52.208;5.488;2023-02-01T03:57:05;9.10;99.80
25440;DHT22;13365;52.208;5.488;2023-02-01T03:59:32;9.10;99.70
25440;DHT22;13365;52.208;5.488;2023-02-01T04:01:58;9.10;99.60
25440;DHT22;13365;52.208;5.488;2023-02-01T04:04:23;9.20;99.60
25440;DHT22;13365;52.208;5.488;2023-02-01T04:06:50;9.20;99.10
25440;DHT22;13365;52.208;5.488;2023-02-01T04:09:16;9.10;99.50
25440;DHT22;13365;52.208;5.488;2023-02-01T04:11:42;9.20;99.70
25440;DHT22;13365;52.208;5.488;2023-02-01T04:14:08;9.30;99.40
25440;DHT22;13365;52.208;5.488;2023-02-01T04:16:33;9.10;99.30
25440;DHT22;13365;52.208;5.488;2023-02-01T04:18:59;9.30;99.10
25440;DHT22;13365;52.208;5.488;2023-02-01T04:21:25;9.40;98.90
25440;DHT22;13365;52.208;5.488;2023-02-01T04:23:51;9.50;98.70
25440;DHT22;13365;52.208;5.488;2023-02-01T04:26:17;9.40;98.80
25440;DHT22;13365;52.208;5.488;2023-02-01T04:28:44;9.40;98.80
25440;DHT22;13365;52.208;5.488;2023-02-01T04:31:13;9.40;98.70
25440;DHT22;13365;52.208;5.488;2023-02-01T04:33:39;9.20;98.90
25440;DHT22;13365;52.208;5.488;2023-02-01T04:36:04;9.30;99.00
25440;DHT22;13365;52.208;5.488;2023-02-01T04:38:30;9.30;99.30
25440;DHT22;13365;52.208;5.488;2023-02-01T04:40:57;9.20;99.10
25440;DHT22;13365;52.208;5.488;2023-02-01T04:43:23;9.20;99.10
25440;DHT22;13365;52.208;5.488;2023-02-01T04:45:49;9.20;99.30
25440;DHT22;13365;52.208;5.488;2023-02-01T04:48:16;9.20;99.50
25440;DHT22;13365;52.208;5.488;2023-02-01T04:50:43;9.40;99.50
25440;DHT22;13365;52.208;5.488;2023-02-01T04:53:10;9.30;99.40
25440;DHT22;13365;52.208;5.488;2023-02-01T04:55:35;9.20;99.40
25440;DHT22;13365;52.208;5.488;2023-02-01T04:58:01;9.20;99.80
25440;DHT22;13365;52.208;5.488;2023-02-01T05:00:27;9.30;99.70
25440;DHT22;13365;52.208;5.488;2023-02-01T05:02:52;9.20;99.70
25440;DHT22;13365;52.208;5.488;2023-02-01T05:05:18;9.30;99.50
25440;DHT22;13365;52.208;5.488;2023-02-01T05:07:43;9.40;99.50
25440;DHT22;13365;52.208;5.488;2023-02-01T05:10:09;9.60;99.30
25440;DHT22;13365;52.208;5.488;2023-02-01T05:12:35;9.60;98.90
25440;DHT22;13365;52.208;5.488;2023-02-01T05:15:19;9.50;99.00
25440;DHT22;13365;52.208;5.488;2023-02-01T05:17:44;9.20;99.20
25440;DHT22;13365;52.208;5.488;2023-02-01T05:20:10;9.30;99.70
25440;DHT22;13365;52.208;5.488;2023-02-01T05:22:36;9.30;99.50
25440;DHT22;13365;52.208;5.488;2023-02-01T05:25:01;9.40;99.20
25440;DHT22;13365;52.208;5.488;2023-02-01T05:27:29;9.50;99.20
25440;DHT22;13365;52.208;5.488;2023-02-01T05:29:55;9.40;99.30
25440;DHT22;13365;52.208;5.488;2023-02-01T05:32:20;9.30;99.50
25440;DHT22;13365;52.208;5.488;2023-02-01T05:34:46;9.30;99.50
25440;DHT22;13365;52.208;5.488;2023-02-01T05:37:11;9.40;99.70
25440;DHT22;13365;52.208;5.488;2023-02-01T05:39:37;9.50;99.50
25440;DHT22;13365;52.208;5.488;2023-02-01T05:42:02;9.40;99.80
25440;DHT22;13365;52.208;5.488;2023-02-01T05:44:28;9.40;99.70
25440;DHT22;13365;52.208;5.488;2023-02-01T05:46:53;9.50;99.70
25440;DHT22;13365;52.208;5.488;2023-02-01T05:49:19;9.50;99.60
25440;DHT22;13365;52.208;5.488;2023-02-01T05:51:44;9.50;99.60
25440;DHT22;13365;52.208;5.488;2023-02-01T05:54:10;9.60;99.60
25440;DHT22;13365;52.208;5.488;2023-02-01T05:56:36;9.40;99.50
25440;DHT22;13365;52.208;5.488;2023-02-01T05:59:01;9.40;99.60
25440;DHT22;13365;52.208;5.488;2023-02-01T06:01:27;9.30;99.80
25440;DHT22;13365;52.208;5.488;2023-02-01T06:03:52;9.40;99.90
25440;DHT22;13365;52.208;5.488;2023-02-01T06:06:18;9.30;99.90
25440;DHT22;13365;52.208;5.488;2023-02-01T06:08:45;9.30;99.90
25440;DHT22;13365;52.208;5.488;2023-02-01T06:11:10;9.20;99.90
25440;DHT22;13365;52.208;5.488;2023-02-01T06:13:36;9.20;99.90
25440;DHT22;13365;52.208;5.488;2023-02-01T06:16:04;9.20;99.90
25440;DHT22;13365;52.208;5.488;2023-02-01T06:18:32;9.20;99.90
25440;DHT22;13365;52.208;5.488;2023-02-01T06:20:59;9.40;99.90
25440;DHT22;13365;52.208;5.488;2023-02-01T06:23:29;9.30;99.90
25440;DHT22;13365;52.208;5.488;2023-02-01T06:26:00;9.30;99.90
25440;DHT22;13365;52.208;5.488;2023-02-01T06:28:27;9.20;99.90
25440;DHT22;13365;52.208;5.488;2023-02-01T06:30:53;9.10;99.90
25440;DHT22;13365;52.208;5.488;2023-02-01T06:33:19;9.30;99.90
25440;DHT22;13365;52.208;5.488;2023-02-01T06:35:44;9.30;99.90
25440;DHT22;13365;52.208;5.488;2023-02-01T06:38:11;9.30;99.90
25440;DHT22;13365;52.208;5.488;2023-02-01T06:40:37;9.40;99.90
25440;DHT22;13365;52.208;5.488;2023-02-01T06:43:03;9.40;99.90
25440;DHT22;13365;52.208;5.488;2023-02-01T06:45:28;9.30;99.90
25440;DHT22;13365;52.208;5.488;2023-02-01T06:47:54;9.20;99.90
25440;DHT22;13365;52.208;5.488;2023-02-01T06:50:19;9.00;99.90
25440;DHT22;13365;52.208;5.488;2023-02-01T06:52:45;9.10;99.90
25440;DHT22;13365;52.208;5.488;2023-02-01T06:55:11;9.20;99.90
25440;DHT22;13365;52.208;5.488;2023-02-01T06:57:37;9.00;99.90
25440;DHT22;13365;52.208;5.488;2023-02-01T07:00:04;9.00;99.90
25440;DHT22;13365;52.208;5.488;2023-02-01T07:02:30;8.90;99.90
25440;DHT22;13365;52.208;5.488;2023-02-01T07:04:55;9.00;99.90
25440;DHT22;13365;52.208;5.488;2023-02-01T07:07:21;8.90;99.90
25440;DHT22;13365;52.208;5.488;2023-02-01T07:09:48;8.60;99.90
25440;DHT22;13365;52.208;5.488;2023-02-01T07:12:14;8.90;99.90
25440;DHT22;13365;52.208;5.488;2023-02-01T07:14:39;9.00;99.90
25440;DHT22;13365;52.208;5.488;2023-02-01T07:17:05;8.80;99.90
25440;DHT22;13365;52.208;5.488;2023-02-01T07:19:30;8.80;99.90
25440;DHT22;13365;52.208;5.488;2023-02-01T07:21:56;8.90;99.90
25440;DHT22;13365;52.208;5.488;2023-02-01T07:24:22;8.90;99.90
25440;DHT22;13365;52.208;5.488;2023-02-01T07:26:47;9.00;99.90
25440;DHT22;13365;52.208;5.488;2023-02-01T07:29:14;9.10;99.90
25440;DHT22;13365;52.208;5.488;2023-02-01T07:31:39;9.10;99.90
25440;DHT22;13365;52.208;5.488;2023-02-01T07:34:05;9.10;99.90
25440;DHT22;13365;52.208;5.488;2023-02-01T07:36:30;9.00;99.90
25440;DHT22;13365;52.208;5.488;2023-02-01T07:38:57;8.90;99.90
25440;DHT22;13365;52.208;5.488;2023-02-01T07:41:23;9.00;99.90
25440;DHT22;13365;52.208;5.488;2023-02-01T07:43:48;9.00;99.90
25440;DHT22;13365;52.208;5.488;2023-02-01T07:46:16;9.10;99.90
25440;DHT22;13365;52.208;5.488;2023-02-01T07:48:42;8.90;99.90
25440;DHT22;13365;52.208;5.488;2023-02-01T07:51:12;8.90;99.90
25440;DHT22;13365;52.208;5.488;2023-02-01T07:53:39;8.90;99.90
25440;DHT22;13365;52.208;5.488;2023-02-01T07:56:18;9.00;99.90
25440;DHT22;13365;52.208;5.488;2023-02-01T07:58:48;9.20;99.90
25440;DHT22;13365;52.208;5.488;2023-02-01T08:01:24;9.50;99.90
25440;DHT22;13365;52.208;5.488;2023-02-01T08:03:56;9.30;99.90
25440;DHT22;13365;52.208;5.488;2023-02-01T08:06:23;9.20;99.90
25440;DHT22;13365;52.208;5.488;2023-02-01T08:08:49;9.20;99.90
25440;DHT22;13365;52.208;5.488;2023-02-01T08:11:17;9.20;99.90
25440;DHT22;13365;52.208;5.488;2023-02-01T08:13:43;9.30;99.90
25440;DHT22;13365;52.208;5.488;2023-02-01T08:16:10;9.30;99.90
25440;DHT22;13365;52.208;5.488;2023-02-01T08:18:37;9.20;99.90
25440;DHT22;13365;52.208;5.488;2023-02-01T08:21:04;9.10;99.90
25440;DHT22;13365;52.208;5.488;2023-02-01T08:23:30;9.30;99.90
25440;DHT22;13365;52.208;5.488;2023-02-01T08:26:07;9.30;99.90
25440;DHT22;13365;52.208;5.488;2023-02-01T08:28:33;9.40;99.90
25440;DHT22;13365;52.208;5.488;2023-02-01T08:31:03;9.50;99.90
25440;DHT22;13365;52.208;5.488;2023-02-01T08:33:28;9.60;99.90
25440;DHT22;13365;52.208;5.488;2023-02-01T08:35:54;9.70;99.90
25440;DHT22;13365;52.208;5.488;2023-02-01T08:38:19;9.70;99.90
25440;DHT22;13365;52.208;5.488;2023-02-01T08:40:45;9.80;99.90
25440;DHT22;13365;52.208;5.488;2023-02-01T08:43:11;9.80;99.90
25440;DHT22;13365;52.208;5.488;2023-02-01T08:45:37;9.80;99.90
25440;DHT22;13365;52.208;5.488;2023-02-01T08:48:02;9.70;99.90
25440;DHT22;13365;52.208;5.488;2023-02-01T08:50:28;9.70;99.90
25440;DHT22;13365;52.208;5.488;2023-02-01T08:52:54;9.70;99.90
25440;DHT22;13365;52.208;5.488;2023-02-01T08:55:20;9.70;99.90
25440;DHT22;13365;52.208;5.488;2023-02-01T08:57:45;9.80;99.90
25440;DHT22;13365;52.208;5.488;2023-02-01T09:00:14;9.80;99.90
25440;DHT22;13365;52.208;5.488;2023-02-01T09:02:41;9.80;99.90
25440;DHT22;13365;52.208;5.488;2023-02-01T09:05:06;9.80;99.90
25440;DHT22;13365;52.208;5.488;2023-02-01T09:07:33;9.60;99.90
25440;DHT22;13365;52.208;5.488;2023-02-01T09:09:59;9.50;99.90
25440;DHT22;13365;52.208;5.488;2023-02-01T09:12:27;9.40;99.90
25440;DHT22;13365;52.208;5.488;2023-02-01T09:14:54;9.70;99.90
25440;DHT22;13365;52.208;5.488;2023-02-01T09:17:19;9.90;99.90
25440;DHT22;13365;52.208;5.488;2023-02-01T09:19:45;10.10;99.90
25440;DHT22;13365;52.208;5.488;2023-02-01T09:22:11;10.20;99.70
25440;DHT22;13365;52.208;5.488;2023-02-01T09:24:36;10.00;99.90
25440;DHT22;13365;52.208;5.488;2023-02-01T09:27:02;9.80;99.90
25440;DHT22;13365;52.208;5.488;2023-02-01T09:29:27;9.80;99.90
25440;DHT22;13365;52.208;5.488;2023-02-01T09:31:53;9.80;99.90
25440;DHT22;13365;52.208;5.488;2023-02-01T09:34:18;9.90;99.80
25440;DHT22;13365;52.208;5.488;2023-02-01T09:36:44;10.00;99.90
25440;DHT22;13365;52.208;5.488;2023-02-01T09:39:09;10.10;99.40
25440;DHT22;13365;52.208;5.488;2023-02-01T09:41:56;10.10;99.20
25440;DHT22;13365;52.208;5.488;2023-02-01T09:46:59;10.00;99.40
25440;DHT22;13365;52.208;5.488;2023-02-01T09:49:33;10.00;99.50
25440;DHT22;13365;52.208;5.488;2023-02-01T09:52:04;10.10;99.20
25440;DHT22;13365;52.208;5.488;2023-02-01T09:54:55;10.00;99.00
25440;DHT22;13365;52.208;5.488;2023-02-01T09:57:35;9.90;99.00
25440;DHT22;13365;52.208;5.488;2023-02-01T10:00:12;9.90;99.10
25440;DHT22;13365;52.208;5.488;2023-02-01T10:02:42;9.80;99.30
25440;DHT22;13365;52.208;5.488;2023-02-01T10:05:18;9.70;99.90
25440;DHT22;13365;52.208;5.488;2023-02-01T10:08:04;9.90;99.50
25440;DHT22;13365;52.208;5.488;2023-02-01T10:10:38;9.60;99.90
25440;DHT22;13365;52.208;5.488;2023-02-01T10:13:15;9.70;99.90
25440;DHT22;13365;52.208;5.488;2023-02-01T10:19:17;9.60;99.90
25440;DHT22;13365;52.208;5.488;2023-02-01T10:22:01;9.40;99.90
25440;DHT22;13365;52.208;5.488;2023-02-01T10:24:52;9.40;99.90
25440;DHT22;13365;52.208;5.488;2023-02-01T10:27:32;9.20;99.90
25440;DHT22;13365;52.208;5.488;2023-02-01T10:30:01;9.10;99.90
25440;DHT22;13365;52.208;5.488;2023-02-01T10:32:33;8.90;99.90
25440;DHT22;13365;52.208;5.488;2023-02-01T10:35:04;8.80;99.90
25440;DHT22;13365;52.208;5.488;2023-02-01T10:37:34;8.60;99.90
25440;DHT22;13365;52.208;5.488;2023-02-01T10:40:16;8.60;99.90
25440;DHT22;13365;52.208;5.488;2023-02-01T10:42:43;8.50;99.90
25440;DHT22;13365;52.208;5.488;2023-02-01T10:45:14;8.50;99.90
25440;DHT22;13365;52.208;5.488;2023-02-01T10:47:42;8.50;99.90
25440;DHT22;13365;52.208;5.488;2023-02-01T10:50:35;8.80;99.90
25440;DHT22;13365;52.208;5.488;2023-02-01T10:53:08;8.70;99.90
25440;DHT22;13365;52.208;5.488;2023-02-01T10:58:07;8.90;99.90
25440;DHT22;13365;52.208;5.488;2023-02-01T11:00:46;8.90;99.90
25440;DHT22;13365;52.208;5.488;2023-02-01T11:03:39;9.10;99.90
25440;DHT22;13365;52.208;5.488;2023-02-01T11:06:26;9.20;99.90
25440;DHT22;13365;52.208;5.488;2023-02-01T11:08:54;9.30;99.90
25440;DHT22;13365;52.208;5.488;2023-02-01T11:11:21;9.30;99.90
25440;DHT22;13365;52.208;5.488;2023-02-01T11:14:15;9.30;99.90
25440;DHT22;13365;52.208;5.488;2023-02-01T11:16:48;9.50;99.90
25440;DHT22;13365;52.208;5.488;2023-02-01T11:19:16;9.40;99.90
25440;DHT22;13365;52.208;5.488;2023-02-01T11:21:43;9.30;99.90
25440;DHT22;13365;52.208;5.488;2023-02-01T11:24:28;9.40;99.90
25440;DHT22;13365;52.208;5.488;2023-02-01T11:26:59;9.40;99.90
25440;DHT22;13365;52.208;5.488;2023-02-01T11:29:26;9.30;99.90
25440;DHT22;13365;52.208;5.488;2023-02-01T11:31:56;9.20;99.90
25440;DHT22;13365;52.208;5.488;2023-02-01T11:34:25;9.20;99.90
25440;DHT22;13365;52.208;5.488;2023-02-01T11:36:53;9.30;99.90
25440;DHT22;13365;52.208;5.488;2023-02-01T11:39:33;9.40;99.90
25440;DHT22;13365;52.208;5.488;2023-02-01T11:42:14;9.50;99.90
25440;DHT22;13365;52.208;5.488;2023-02-01T11:44:45;9.60;99.90
25440;DHT22;13365;52.208;5.488;2023-02-01T11:47:28;9.50;99.90
25440;DHT22;13365;52.208;5.488;2023-02-01T11:49:58;9.50;99.90
25440;DHT22;13365;52.208;5.488;2023-02-01T12:06:32;9.80;99.90
25440;DHT22;13365;52.208;5.488;2023-02-01T12:20:24;10.00;99.90
25440;DHT22;13365;52.208;5.488;2023-02-01T12:31:31;10.10;99.90
25440;DHT22;13365;52.208;5.488;2023-02-01T12:34:20;10.00;99.90
25440;DHT22;13365;52.208;5.488;2023-02-01T12:39:22;10.20;99.90
25440;DHT22;13365;52.208;5.488;2023-02-01T12:42:13;10.20;99.90
25440;DHT22;13365;52.208;5.488;2023-02-01T12:44:50;10.20;99.90
25440;DHT22;13365;52.208;5.488;2023-02-01T12:47:25;10.20;99.90
25440;DHT22;13365;52.208;5.488;2023-02-01T12:50:20;10.20;99.90
25440;DHT22;13365;52.208;5.488;2023-02-01T12:52:50;10.10;99.90
25440;DHT22;13365;52.208;5.488;2023-02-01T12:55:46;10.00;99.90
25440;DHT22;13365;52.208;5.488;2023-02-01T12:58:22;10.10;99.90
25440;DHT22;13365;52.208;5.488;2023-02-01T13:01:00;10.10;99.90
25440;DHT22;13365;52.208;5.488;2023-02-01T13:03:55;10.30;99.90
25440;DHT22;13365;52.208;5.488;2023-02-01T13:06:29;10.20;99.90
25440;DHT22;13365;52.208;5.488;2023-02-01T13:09:05;10.10;99.90
25440;DHT22;13365;52.208;5.488;2023-02-01T13:11:40;10.20;99.90
25440;DHT22;13365;52.208;5.488;2023-02-01T13:16:54;10.30;99.90
25440;DHT22;13365;52.208;5.488;2023-02-01T13:22:15;10.30;99.90
25440;DHT22;13365;52.208;5.488;2023-02-01T13:27:12;10.30;99.90
25440;DHT22;13365;52.208;5.488;2023-02-01T13:29:59;10.40;99.90
25440;DHT22;13365;52.208;5.488;2023-02-01T13:41:08;10.30;99.90
25440;DHT22;13365;52.208;5.488;2023-02-01T13:43:38;10.30;99.90
25440;DHT22;13365;52.208;5.488;2023-02-01T13:46:08;10.30;99.90
25440;DHT22;13365;52.208;5.488;2023-02-01T13:48:51;10.40;99.90
25440;DHT22;13365;52.208;5.488;2023-02-01T13:51:33;10.40;99.90
25440;DHT22;13365;52.208;5.488;2023-02-01T13:53:59;10.40;99.90
25440;DHT22;13365;52.208;5.488;2023-02-01T13:56:25;10.30;99.90
25440;DHT22;13365;52.208;5.488;2023-02-01T13:58:51;10.50;99.90
25440;DHT22;13365;52.208;5.488;2023-02-01T14:08:44;10.70;99.90
25440;DHT22;13365;52.208;5.488;2023-02-01T14:11:31;10.80;99.90
25440;DHT22;13365;52.208;5.488;2023-02-01T14:14:51;10.80;99.90
25440;DHT22;13365;52.208;5.488;2023-02-01T14:19:25;10.60;99.90
25440;DHT22;13365;52.208;5.488;2023-02-01T14:21:53;10.60;99.90
25440;DHT22;13365;52.208;5.488;2023-02-01T14:24:32;10.70;99.90
25440;DHT22;13365;52.208;5.488;2023-02-01T14:27:00;10.80;99.90
25440;DHT22;13365;52.208;5.488;2023-02-01T14:29:36;10.70;99.90
25440;DHT22;13365;52.208;5.488;2023-02-01T14:32:15;10.80;99.90
25440;DHT22;13365;52.208;5.488;2023-02-01T14:42:21;10.90;99.90
25440;DHT22;13365;52.208;5.488;2023-02-01T14:44:48;10.70;99.90
25440;DHT22;13365;52.208;5.488;2023-02-01T14:50:16;10.80;99.90
25440;DHT22;13365;52.208;5.488;2023-02-01T14:55:16;10.80;99.90
25440;DHT22;13365;52.208;5.488;2023-02-01T14:57:43;10.70;99.90
25440;DHT22;13365;52.208;5.488;2023-02-01T15:02:49;10.00;99.90
25440;DHT22;13365;52.208;5.488;2023-02-01T15:05:35;9.40;99.90
25440;DHT22;13365;52.208;5.488;2023-02-01T15:08:07;9.20;99.90
25440;DHT22;13365;52.208;5.488;2023-02-01T15:10:43;9.10;99.90
25440;DHT22;13365;52.208;5.488;2023-02-01T15:13:24;9.00;99.90
25440;DHT22;13365;52.208;5.488;2023-02-01T15:16:13;9.40;99.90
25440;DHT22;13365;52.208;5.488;2023-02-01T15:18:43;9.50;99.90
25440;DHT22;13365;52.208;5.488;2023-02-01T15:21:22;9.70;99.90
25440;DHT22;13365;52.208;5.488;2023-02-01T15:23:48;9.90;99.90
25440;DHT22;13365;52.208;5.488;2023-02-01T15:26:29;10.20;99.90
25440;DHT22;13365;52.208;5.488;2023-02-01T15:28:59;10.10;99.90
25440;DHT22;13365;52.208;5.488;2023-02-01T15:31:35;10.30;99.90
25440;DHT22;13365;52.208;5.488;2023-02-01T15:34:01;10.20;99.90
25440;DHT22;13365;52.208;5.488;2023-02-01T15:36:26;10.10;99.90
25440;DHT22;13365;52.208;5.488;2023-02-01T15:41:48;10.50;99.90
25440;DHT22;13365;52.208;5.488;2023-02-01T15:44:17;10.40;99.90
25440;DHT22;13365;52.208;5.488;2023-02-01T15:46:46;10.40;99.90
25440;DHT22;13365;52.208;5.488;2023-02-01T15:51:52;9.90;99.90
25440;DHT22;13365;52.208;5.488;2023-02-01T15:54:42;9.80;99.90
25440;DHT22;13365;52.208;5.488;2023-02-01T15:57:09;9.60;99.90
25440;DHT22;13365;52.208;5.488;2023-02-01T15:59:43;9.80;99.90
25440;DHT22;13365;52.208;5.488;2023-02-01T16:02:33;9.80;99.90
25440;DHT22;13365;52.208;5.488;2023-02-01T16:04:59;9.80;99.90
25440;DHT22;13365;52.208;5.488;2023-02-01T16:07:30;10.00;99.90
25440;DHT22;13365;52.208;5.488;2023-02-01T16:10:00;10.10;99.90
25440;DHT22;13365;52.208;5.488;2023-02-01T16:12:46;10.20;99.90
25440;DHT22;13365;52.208;5.488;2023-02-01T16:15:12;10.30;99.90
25440;DHT22;13365;52.208;5.488;2023-02-01T16:17:38;10.20;99.90
25440;DHT22;13365;52.208;5.488;2023-02-01T16:20:04;10.10;99.90
25440;DHT22;13365;52.208;5.488;2023-02-01T16:22:30;10.10;99.90
25440;DHT22;13365;52.208;5.488;2023-02-01T16:24:55;10.20;99.90
25440;DHT22;13365;52.208;5.488;2023-02-01T16:27:21;10.10;99.90
25440;DHT22;13365;52.208;5.488;2023-02-01T16:29:47;10.20;99.90
25440;DHT22;13365;52.208;5.488;2023-02-01T16:32:17;10.10;99.90
25440;DHT22;13365;52.208;5.488;2023-02-01T16:34:44;10.20;99.90
25440;DHT22;13365;52.208;5.488;2023-02-01T16:37:16;10.20;99.90
25440;DHT22;13365;52.208;5.488;2023-02-01T16:39:44;10.10;99.90
25440;DHT22;13365;52.208;5.488;2023-02-01T16:42:14;10.00;99.90
25440;DHT22;13365;52.208;5.488;2023-02-01T16:44:40;10.10;99.90
25440;DHT22;13365;52.208;5.488;2023-02-01T16:47:17;10.10;99.90
25440;DHT22;13365;52.208;5.488;2023-02-01T16:49:44;10.20;99.90
25440;DHT22;13365;52.208;5.488;2023-02-01T16:52:17;10.40;99.90
25440;DHT22;13365;52.208;5.488;2023-02-01T16:54:43;10.50;99.90
25440;DHT22;13365;52.208;5.488;2023-02-01T16:57:14;10.20;99.90
25440;DHT22;13365;52.208;5.488;2023-02-01T16:59:40;9.90;99.90
25440;DHT22;13365;52.208;5.488;2023-02-01T17:02:16;10.10;99.90
25440;DHT22;13365;52.208;5.488;2023-02-01T17:04:44;10.20;99.90
25440;DHT22;13365;52.208;5.488;2023-02-01T17:07:17;10.00;99.90
25440;DHT22;13365;52.208;5.488;2023-02-01T17:09:44;10.00;99.90
25440;DHT22;13365;52.208;5.488;2023-02-01T17:12:25;10.00;99.90
25440;DHT22;13365;52.208;5.488;2023-02-01T17:14:51;10.00;99.90
25440;DHT22;13365;52.208;5.488;2023-02-01T17:17:17;9.80;99.90
25440;DHT22;13365;52.208;5.488;2023-02-01T17:19:47;9.80;99.90
25440;DHT22;13365;52.208;5.488;2023-02-01T17:22:13;9.80;99.90
25440;DHT22;13365;52.208;5.488;2023-02-01T17:24:39;9.90;99.90
25440;DHT22;13365;52.208;5.488;2023-02-01T17:27:05;9.80;99.90
25440;DHT22;13365;52.208;5.488;2023-02-01T17:29:30;9.80;99.90
25440;DHT22;13365;52.208;5.488;2023-02-01T17:31:56;10.00;99.90
25440;DHT22;13365;52.208;5.488;2023-02-01T17:34:24;10.10;99.90
25440;DHT22;13365;52.208;5.488;2023-02-01T17:36:50;10.10;99.90
25440;DHT22;13365;52.208;5.488;2023-02-01T17:39:16;10.10;99.90
25440;DHT22;13365;52.208;5.488;2023-02-01T17:42:01;10.00;99.90
25440;DHT22;13365;52.208;5.488;2023-02-01T17:44:27;10.00;99.90
25440;DHT22;13365;52.208;5.488;2023-02-01T17:46:52;10.00;99.90
25440;DHT22;13365;52.208;5.488;2023-02-01T17:49:18;10.10;99.90
25440;DHT22;13365;52.208;5.488;2023-02-01T17:51:43;10.10;99.90
25440;DHT22;13365;52.208;5.488;2023-02-01T17:54:13;10.20;99.90
25440;DHT22;13365;52.208;5.488;2023-02-01T17:56:39;10.40;99.90